Time;durP1;ratioP1;P1;durP2;ratioP2;P2;SDS_P1;SDS_P2;PMS_P1;PMS_P2;Temp;Humidity;BMP_temperature;BMP_pressure;BME280_temperature;BME280_humidity;BME280_pressure;Samples;Min_cycle;Max_cycle;Signal;HPM_P1;HPM_P2
2023/07/16 00:00:53;;;;;;;2.10;1.30;;;23.20;61.80;;;;;;4880280;29;20053;-53
2023/07/16 00:03:19;;;;;;;3.33;1.10;;;23.20;62.50;;;;;;4892135;29;20068;-53
2023/07/16 00:05:51;;;;;;;3.10;1.65;;;23.20;62.30;;;;;;4895491;29;20045;-55
2023/07/16 00:08:17;;;;;;;3.97;1.90;;;23.10;62.70;;;;;;4886362;29;20045;-55
2023/07/16 00:10:46;;;;;;;2.95;1.50;;;23.10;62.40;;;;;;4892255;29;20071;-53
2023/07/16 00:13:22;;;;;;;3.38;1.35;;;23.10;62.30;;;;;;4886879;29;20040;-52
2023/07/16 00:15:51;;;;;;;3.58;1.70;;;23.10;62.40;;;;;;4889370;29;20430;-55
2023/07/16 00:18:20;;;;;;;2.35;1.55;;;23.10;62.20;;;;;;4894382;29;20065;-55
2023/07/16 00:20:47;;;;;;;1.73;1.48;;;23.00;62.30;;;;;;4887398;29;20049;-56
2023/07/16 00:23:16;;;;;;;2.28;1.73;;;23.00;62.40;;;;;;4871477;29;20471;-52
2023/07/16 00:25:44;;;;;;;1.50;1.17;;;23.00;62.50;;;;;;4891670;29;20052;-53
2023/07/16 00:28:13;;;;;;;4.25;1.55;;;23.00;62.30;;;;;;4895912;29;20614;-54
2023/07/16 00:30:39;;;;;;;2.20;1.60;;;22.90;62.50;;;;;;4878132;29;20056;-54
2023/07/16 00:33:08;;;;;;;2.40;1.40;;;22.90;62.40;;;;;;4871945;29;20051;-54
2023/07/16 00:35:35;;;;;;;3.00;1.73;;;22.90;62.60;;;;;;4891332;29;20068;-52
2023/07/16 00:38:02;;;;;;;2.28;1.35;;;22.80;62.80;;;;;;4878577;29;20079;-55
2023/07/16 00:40:31;;;;;;;3.35;1.52;;;22.70;62.90;;;;;;4873891;29;20742;-52
2023/07/16 00:42:59;;;;;;;3.63;1.73;;;22.70;62.80;;;;;;4876559;29;20409;-55
2023/07/16 00:45:29;;;;;;;2.33;1.70;;;22.60;63.20;;;;;;4876872;29;20131;-52
2023/07/16 00:47:57;;;;;;;4.03;1.80;;;22.60;63.20;;;;;;4879028;29;20418;-51
2023/07/16 00:50:28;;;;;;;1.95;1.55;;;22.60;63.30;;;;;;4883694;29;20049;-51
2023/07/16 00:52:55;;;;;;;2.35;1.40;;;22.50;63.20;;;;;;4861137;29;20085;-56
2023/07/16 00:55:22;;;;;;;1.63;1.45;;;22.50;63.40;;;;;;4876925;29;20083;-55
2023/07/16 00:57:48;;;;;;;4.03;1.92;;;22.50;63.40;;;;;;4888089;29;20123;-53
2023/07/16 01:00:17;;;;;;;3.40;1.58;;;22.40;63.50;;;;;;4880559;29;20083;-54
2023/07/16 01:02:44;;;;;;;1.60;1.30;;;22.40;63.50;;;;;;4885689;29;20048;-54
2023/07/16 01:05:13;;;;;;;2.83;1.40;;;22.30;63.90;;;;;;4893872;29;20395;-51
2023/07/16 01:07:54;;;;;;;2.47;1.02;;;22.30;63.80;;;;;;4892462;29;20064;-55
2023/07/16 01:10:23;;;;;;;3.08;1.52;;;22.20;64.50;;;;;;4892229;29;20041;-54
2023/07/16 01:12:55;;;;;;;3.08;1.88;;;22.20;64.00;;;;;;4885795;29;20168;-56
2023/07/16 01:15:31;;;;;;;1.95;1.50;;;22.20;64.00;;;;;;4873852;29;20052;-51
2023/07/16 01:18:02;;;;;;;2.35;1.25;;;22.20;63.60;;;;;;4878703;29;20127;-53
2023/07/16 01:20:38;;;;;;;1.65;1.13;;;22.10;63.50;;;;;;4871640;29;20053;-54
2023/07/16 01:23:34;;;;;;;3.35;1.45;;;22.10;63.50;;;;;;4877180;29;20075;-55
2023/07/16 01:26:07;;;;;;;1.95;1.38;;;22.10;64.40;;;;;;4861702;29;20097;-55
2023/07/16 01:29:12;;;;;;;1.77;1.42;;;22.10;64.00;;;;;;4877292;29;20123;-53
2023/07/16 01:31:41;;;;;;;3.38;1.40;;;22.00;64.30;;;;;;4881031;29;20040;-55
2023/07/16 01:34:10;;;;;;;1.92;1.73;;;22.00;63.50;;;;;;4875915;29;20048;-51
2023/07/16 01:36:39;;;;;;;1.65;1.10;;;21.90;63.70;;;;;;4896522;29;20081;-51
2023/07/16 01:39:08;;;;;;;3.90;1.40;;;21.90;63.70;;;;;;4877599;29;20057;-53
2023/07/16 01:41:37;;;;;;;2.25;1.50;;;21.90;63.70;;;;;;4888303;29;20040;-52
2023/07/16 01:44:13;;;;;;;4.35;2.00;;;21.90;63.90;;;;;;4896657;29;20068;-55
2023/07/16 01:46:42;;;;;;;3.00;1.48;;;21.90;63.80;;;;;;4880694;29;20059;-55
2023/07/16 01:49:14;;;;;;;3.40;1.50;;;21.80;64.00;;;;;;4897749;29;20040;-55
2023/07/16 01:51:40;;;;;;;2.30;1.80;;;21.80;63.90;;;;;;4883673;29;20072;-51
2023/07/16 01:54:07;;;;;;;1.45;1.35;;;21.80;63.70;;;;;;4892528;29;20044;-51
2023/07/16 01:56:34;;;;;;;1.88;1.30;;;21.80;63.60;;;;;;4897333;29;20569;-55
2023/07/16 01:59:05;;;;;;;3.53;1.52;;;21.70;63.70;;;;;;4873427;29;20057;-52
2023/07/16 02:01:31;;;;;;;1.65;1.55;;;21.70;63.80;;;;;;4889315;29;20483;-54
2023/07/16 02:03:59;;;;;;;4.40;1.60;;;21.70;63.70;;;;;;4897333;29;20044;-54
2023/07/16 02:06:31;;;;;;;1.80;1.60;;;21.70;63.80;;;;;;4896495;29;20044;-55
2023/07/16 02:08:59;;;;;;;3.53;2.22;;;21.60;64.00;;;;;;4886384;29;20045;-51
2023/07/16 02:11:31;;;;;;;3.10;2.17;;;21.60;63.60;;;;;;4884536;29;20088;-54
2023/07/16 02:14:01;;;;;;;3.40;2.30;;;21.60;63.70;;;;;;4896087;29;20041;-52
2023/07/16 02:16:32;;;;;;;2.70;2.20;;;21.50;63.80;;;;;;4896786;29;20048;-50
2023/07/16 02:18:59;;;;;;;3.55;2.65;;;21.50;63.80;;;;;;4879583;29;20545;-54
2023/07/16 02:21:28;;;;;;;2.20;2.00;;;21.50;63.60;;;;;;4870556;29;20113;-55
2023/07/16 02:23:55;;;;;;;3.25;2.13;;;21.50;63.90;;;;;;4880179;29;20071;-55
2023/07/16 02:26:25;;;;;;;3.22;2.72;;;21.40;63.90;;;;;;4896679;29;20072;-54
2023/07/16 02:28:52;;;;;;;7.03;2.22;;;21.40;64.00;;;;;;4895185;29;20045;-51
2023/07/16 02:31:21;;;;;;;4.65;2.25;;;21.40;64.30;;;;;;4886760;29;20040;-53
2023/07/16 02:33:51;;;;;;;;;;;21.40;64.00;;;;;;4879911;29;20040;-54
2023/07/16 02:36:17;;;;;;;4.70;1.85;;;21.40;63.50;;;;;;4879699;29;19966;-51
2023/07/16 02:38:47;;;;;;;3.75;2.05;;;21.30;63.40;;;;;;4875433;29;20049;-52
2023/07/16 02:41:15;;;;;;;2.40;1.80;;;21.30;63.90;;;;;;4866286;29;20132;-53
2023/07/16 02:44:03;;;;;;;2.45;2.10;;;21.30;63.80;;;;;;4872083;29;20413;-51
2023/07/16 02:46:30;;;;;;;2.35;1.60;;;21.20;64.40;;;;;;4895345;29;20553;-56
2023/07/16 02:48:57;;;;;;;4.20;1.85;;;21.20;63.70;;;;;;4879352;29;20115;-54
2023/07/16 02:51:23;;;;;;;4.68;1.85;;;21.20;63.80;;;;;;4870985;29;20108;-55
2023/07/16 02:53:50;;;;;;;2.13;1.55;;;21.10;63.70;;;;;;4911791;23;20066;-51
2023/07/16 02:56:22;;;;;;;3.67;1.50;;;21.10;63.60;;;;;;4885462;29;20065;-47
2023/07/16 02:58:48;;;;;;;3.08;1.70;;;21.00;63.50;;;;;;4893002;29;20118;-50
2023/07/16 03:01:15;;;;;;;2.65;1.58;;;21.10;63.50;;;;;;4894537;29;20048;-48
2023/07/16 03:03:42;;;;;;;3.13;2.13;;;21.00;63.20;;;;;;4897884;29;20139;-52
2023/07/16 03:06:14;;;;;;;6.20;1.83;;;20.90;63.30;;;;;;4877415;29;20037;-49
2023/07/16 03:08:46;;;;;;;4.72;2.30;;;20.90;63.20;;;;;;4874094;29;20143;-48
2023/07/16 03:11:21;;;;;;;3.22;1.92;;;20.90;63.20;;;;;;4873864;29;20110;-48
2023/07/16 03:13:47;;;;;;;2.10;1.42;;;20.80;63.20;;;;;;4858980;29;20049;-48
2023/07/16 03:16:15;;;;;;;5.25;1.95;;;20.80;63.40;;;;;;4877599;29;20116;-51
2023/07/16 03:18:45;;;;;;;2.92;1.52;;;20.80;63.60;;;;;;4877138;29;20542;-51
2023/07/16 03:21:14;;;;;;;4.32;2.20;;;20.80;63.60;;;;;;4873316;29;20600;-49
2023/07/16 03:23:41;;;;;;;3.28;1.60;;;20.70;63.60;;;;;;4875970;29;20044;-53
2023/07/16 03:26:08;;;;;;;3.00;1.88;;;20.70;63.50;;;;;;4877507;29;20044;-49
2023/07/16 03:28:36;;;;;;;9.65;2.72;;;20.70;63.50;;;;;;4874778;29;20053;-50
2023/07/16 03:31:15;;;;;;;2.63;1.88;;;20.70;63.40;;;;;;4870290;29;20600;-49
2023/07/16 03:33:44;;;;;;;1.70;1.33;;;20.70;63.90;;;;;;4875011;29;20052;-53
2023/07/16 03:36:12;;;;;;;5.80;3.08;;;20.70;63.20;;;;;;4875814;29;20051;-51
2023/07/16 03:38:41;;;;;;;3.22;2.15;;;20.60;62.70;;;;;;4873078;29;20092;-51
2023/07/16 03:41:11;;;;;;;3.53;1.95;;;20.60;62.40;;;;;;4870549;29;20052;-49
2023/07/16 03:43:41;;;;;;;3.53;2.55;;;20.60;62.50;;;;;;4858164;29;20041;-51
2023/07/16 03:46:18;;;;;;;6.18;2.30;;;20.50;62.40;;;;;;4875344;29;20504;-48
2023/07/16 03:48:47;;;;;;;3.77;2.00;;;20.50;62.70;;;;;;4876920;29;20045;-50
2023/07/16 03:51:14;;;;;;;4.32;1.80;;;20.50;62.80;;;;;;4872091;29;20044;-49
2023/07/16 03:53:41;;;;;;;4.85;2.60;;;20.50;62.80;;;;;;4875303;29;20135;-51
2023/07/16 03:56:08;;;;;;;5.70;2.20;;;20.40;62.70;;;;;;4875502;29;20507;-50
2023/07/16 03:58:38;;;;;;;5.80;2.67;;;20.40;62.90;;;;;;4856073;29;20049;-52
2023/07/16 04:01:05;;;;;;;4.55;2.15;;;20.40;63.20;;;;;;4873310;29;20423;-51
2023/07/16 04:03:32;;;;;;;3.78;2.05;;;20.40;63.00;;;;;;4859177;29;20510;-51
2023/07/16 04:06:04;;;;;;;9.63;2.45;;;20.40;63.10;;;;;;4876496;29;20499;-49
2023/07/16 04:08:31;;;;;;;4.63;1.70;;;20.40;63.20;;;;;;4874438;29;20081;-52
2023/07/16 04:11:00;;;;;;;3.83;1.75;;;20.40;62.80;;;;;;4873758;29;20041;-51
2023/07/16 04:13:27;;;;;;;5.68;1.90;;;20.30;62.60;;;;;;4873644;29;20108;-49
2023/07/16 04:15:58;;;;;;;5.07;1.70;;;20.30;62.50;;;;;;4869138;29;20578;-50
2023/07/16 04:18:30;;;;;;;3.15;1.92;;;20.30;62.40;;;;;;4877312;29;20049;-51
2023/07/16 04:20:56;;;;;;;5.03;1.50;;;20.30;62.30;;;;;;4868634;29;20570;-52
2023/07/16 04:23:25;;;;;;;4.47;1.85;;;20.20;62.10;;;;;;4876013;29;20074;-50
2023/07/16 04:25:54;;;;;;;6.72;2.83;;;20.20;62.20;;;;;;4875961;29;20079;-49
2023/07/16 04:28:23;;;;;;;2.50;1.70;;;20.20;62.40;;;;;;4875485;29;20049;-48
2023/07/16 04:30:50;;;;;;;2.33;1.60;;;20.20;62.60;;;;;;4875251;29;20049;-49
2023/07/16 04:33:23;;;;;;;4.78;2.55;;;20.20;62.60;;;;;;4875906;29;20051;-50
2023/07/16 04:35:50;;;;;;;3.72;2.05;;;20.20;62.60;;;;;;4875845;29;20080;-52
2023/07/16 04:38:16;;;;;;;6.40;2.25;;;20.20;62.70;;;;;;4871887;29;20080;-49
2023/07/16 04:40:45;;;;;;;4.13;2.17;;;20.20;62.80;;;;;;4872240;29;20037;-52
2023/07/16 04:43:14;;;;;;;5.47;1.73;;;20.20;62.80;;;;;;4860973;29;20052;-51
2023/07/16 04:45:46;;;;;;;3.38;2.30;;;20.20;62.90;;;;;;4875415;29;20056;-51
2023/07/16 04:48:13;;;;;;;5.53;1.88;;;20.20;63.00;;;;;;4877484;29;20065;-49
2023/07/16 04:50:42;;;;;;;5.90;2.33;;;20.20;62.80;;;;;;4870796;29;20590;-49
2023/07/16 04:53:09;;;;;;;4.05;2.38;;;20.20;62.80;;;;;;4869656;29;20068;-52
2023/07/16 04:55:37;;;;;;;5.53;2.17;;;20.20;62.60;;;;;;4875075;29;20096;-47
2023/07/16 04:58:04;;;;;;;3.15;2.17;;;20.20;62.60;;;;;;4876160;29;20073;-53
2023/07/16 05:00:36;;;;;;;5.65;1.90;;;20.20;62.60;;;;;;4866529;29;20128;-53
2023/07/16 05:03:06;;;;;;;5.70;2.70;;;20.30;62.90;;;;;;4868818;29;20080;-50
2023/07/16 05:05:36;;;;;;;4.40;2.15;;;20.30;62.80;;;;;;4875216;29;20045;-49
2023/07/16 05:08:06;;;;;;;3.38;1.77;;;20.30;62.50;;;;;;4873266;29;20065;-51
2023/07/16 05:10:33;;;;;;;3.33;2.28;;;20.30;62.30;;;;;;4870017;29;20498;-50
2023/07/16 05:13:03;;;;;;;4.20;2.30;;;20.30;62.10;;;;;;4873102;29;20068;-51
2023/07/16 05:15:32;;;;;;;3.60;2.53;;;20.30;61.90;;;;;;4875749;29;20057;-49
2023/07/16 05:17:59;;;;;;;5.40;2.97;;;20.30;61.80;;;;;;4875760;29;20049;-49
2023/07/16 05:20:26;;;;;;;6.13;3.70;;;20.30;61.80;;;;;;4873314;29;20053;-50
2023/07/16 05:22:53;;;;;;;2.60;1.90;;;20.30;61.60;;;;;;4876221;29;20064;-49
2023/07/16 05:25:19;;;;;;;7.47;4.00;;;20.30;61.50;;;;;;4875449;29;20087;-49
2023/07/16 05:27:55;;;;;;;5.00;2.72;;;20.30;61.70;;;;;;4875482;29;20044;-50
2023/07/16 05:30:23;;;;;;;5.35;2.78;;;20.30;61.80;;;;;;4872228;29;20052;-47
2023/07/16 05:32:55;;;;;;;5.90;2.75;;;20.40;61.50;;;;;;4876214;29;20124;-48
2023/07/16 05:35:21;;;;;;;5.45;2.50;;;20.30;61.20;;;;;;4875408;29;20041;-50
2023/07/16 05:37:48;;;;;;;3.70;2.95;;;20.30;61.30;;;;;;4875458;29;20080;-51
2023/07/16 05:40:18;;;;;;;4.03;2.78;;;20.40;61.20;;;;;;4870953;29;20723;-52
2023/07/16 05:42:44;;;;;;;5.28;2.97;;;20.40;60.90;;;;;;4871749;29;20434;-51
2023/07/16 05:45:11;;;;;;;7.85;3.28;;;20.40;60.50;;;;;;4875702;29;20065;-50
2023/07/16 05:47:38;;;;;;;6.95;3.03;;;20.40;60.40;;;;;;4875332;29;20042;-52
2023/07/16 05:50:05;;;;;;;7.55;3.40;;;20.40;60.00;;;;;;4874446;29;20053;-48
2023/07/16 05:52:32;;;;;;;5.85;3.35;;;20.40;59.80;;;;;;4874541;29;20057;-51
2023/07/16 05:54:58;;;;;;;4.95;3.03;;;20.50;59.80;;;;;;4875058;29;20041;-48
2023/07/16 05:57:27;;;;;;;6.63;3.63;;;20.50;59.70;;;;;;4875293;29;20562;-52
2023/07/16 05:59:54;;;;;;;6.47;3.55;;;20.50;59.50;;;;;;4864866;29;20045;-53
2023/07/16 06:02:25;;;;;;;7.57;3.05;;;20.50;59.30;;;;;;4874827;29;20057;-52
2023/07/16 06:04:51;;;;;;;4.07;3.33;;;20.50;59.30;;;;;;4870847;29;20526;-50
2023/07/16 06:07:20;;;;;;;7.03;3.95;;;20.60;59.30;;;;;;4871998;29;20104;-53
2023/07/16 06:09:51;;;;;;;5.75;3.30;;;20.60;59.20;;;;;;4872912;29;20055;-49
2023/07/16 06:12:17;;;;;;;7.03;3.83;;;20.60;59.10;;;;;;4867405;29;20506;-49
2023/07/16 06:14:46;;;;;;;6.85;4.15;;;20.60;59.10;;;;;;4859482;29;20069;-51
2023/07/16 06:17:12;;;;;;;8.77;3.95;;;20.70;58.70;;;;;;4874496;29;20045;-49
2023/07/16 06:19:42;;;;;;;7.53;4.55;;;20.70;58.60;;;;;;4869082;29;20474;-48
2023/07/16 06:22:09;;;;;;;7.82;4.03;;;20.70;58.20;;;;;;4874044;29;20128;-54
2023/07/16 06:24:36;;;;;;;5.07;3.92;;;20.70;58.10;;;;;;4874684;29;20045;-52
2023/07/16 06:27:05;;;;;;;6.82;4.60;;;20.80;57.60;;;;;;4870704;29;20078;-51
2023/07/16 06:29:39;;;;;;;13.20;3.95;;;20.80;57.40;;;;;;4877615;29;20053;-53
2023/07/16 06:32:06;;;;;;;9.10;4.30;;;20.80;57.50;;;;;;4864184;29;20576;-54
2023/07/16 06:34:33;;;;;;;5.68;3.40;;;20.80;57.50;;;;;;4870050;29;20049;-52
2023/07/16 06:37:00;;;;;;;10.25;4.20;;;20.90;57.40;;;;;;4876674;29;20070;-49
2023/07/16 06:39:26;;;;;;;5.28;3.83;;;20.90;57.20;;;;;;4878140;29;20084;-50
2023/07/16 06:41:53;;;;;;;7.80;3.95;;;20.90;57.10;;;;;;4870478;29;20511;-51
2023/07/16 06:44:22;;;;;;;11.35;4.20;;;21.00;56.90;;;;;;4876124;29;20079;-51
2023/07/16 06:46:49;;;;;;;6.43;4.50;;;21.00;56.80;;;;;;4877873;29;20056;-50
2023/07/16 06:49:16;;;;;;;7.90;4.30;;;21.10;56.60;;;;;;4876093;29;20094;-51
2023/07/16 06:51:42;;;;;;;5.88;4.30;;;21.10;56.50;;;;;;4871009;29;20510;-52
2023/07/16 06:54:09;;;;;;;7.60;4.55;;;21.10;56.20;;;;;;4876743;29;20052;-51
2023/07/16 06:56:36;;;;;;;5.90;4.38;;;21.20;56.10;;;;;;4876894;29;20105;-50
2023/07/16 06:59:02;;;;;;;5.07;3.83;;;21.20;55.90;;;;;;4873018;29;20502;-51
2023/07/16 07:01:29;;;;;;;5.93;4.05;;;21.20;55.70;;;;;;4872339;29;20586;-50
2023/07/16 07:03:56;;;;;;;6.43;4.03;;;21.20;55.20;;;;;;4875028;29;20041;-50
2023/07/16 07:06:23;;;;;;;6.75;4.40;;;21.20;55.60;;;;;;4872988;29;20037;-50
2023/07/16 07:08:51;;;;;;;11.90;4.88;;;21.30;55.40;;;;;;4875109;29;20049;-52
2023/07/16 07:11:18;;;;;;;8.63;4.80;;;21.30;55.60;;;;;;4874060;29;20112;-52
2023/07/16 07:13:45;;;;;;;6.95;4.88;;;21.30;55.10;;;;;;4875325;29;20057;-51
2023/07/16 07:16:12;;;;;;;5.40;4.03;;;21.40;54.90;;;;;;4873324;29;20045;-48
2023/07/16 07:18:39;;;;;;;6.25;4.57;;;21.40;54.80;;;;;;4872837;29;20084;-50
2023/07/16 07:21:08;;;;;;;5.13;4.60;;;21.40;55.00;;;;;;4875117;29;20414;-50
2023/07/16 07:23:37;;;;;;;7.07;4.65;;;21.50;54.80;;;;;;4875132;29;20084;-52
2023/07/16 07:26:06;;;;;;;7.55;4.55;;;21.50;54.80;;;;;;4869504;29;20052;-48
2023/07/16 07:28:34;;;;;;;5.68;4.07;;;21.50;54.30;;;;;;4873603;29;20071;-48
2023/07/16 07:31:01;;;;;;;9.50;4.63;;;21.50;54.50;;;;;;4870204;29;20411;-50
2023/07/16 07:33:28;;;;;;;6.30;4.63;;;21.60;54.40;;;;;;4872198;29;20056;-49
2023/07/16 07:35:57;;;;;;;7.03;4.22;;;21.60;54.30;;;;;;4877698;29;20100;-52
2023/07/16 07:38:27;;;;;;;6.13;4.57;;;21.60;54.40;;;;;;4872922;29;20061;-51
2023/07/16 07:40:57;;;;;;;9.15;5.00;;;21.60;54.20;;;;;;4872320;29;20052;-51
2023/07/16 07:43:26;;;;;;;13.23;5.35;;;21.70;53.90;;;;;;4877079;29;20076;-51
2023/07/16 07:45:53;;;;;;;7.82;4.72;;;21.70;53.90;;;;;;4877239;29;20045;-49
2023/07/16 07:48:22;;;;;;;5.50;4.90;;;21.70;53.90;;;;;;4877251;29;20052;-49
2023/07/16 07:50:49;;;;;;;5.47;4.00;;;21.80;54.20;;;;;;4871981;29;20047;-51
2023/07/16 07:53:19;;;;;;;6.85;4.63;;;21.80;53.90;;;;;;4876612;29;20055;-51
2023/07/16 07:55:47;;;;;;;7.03;4.18;;;21.80;53.90;;;;;;4877226;29;20055;-52
2023/07/16 07:58:14;;;;;;;6.57;4.28;;;21.90;53.90;;;;;;4876852;29;20097;-51
2023/07/16 08:00:40;;;;;;;7.28;4.35;;;22.00;53.70;;;;;;4869734;29;20063;-50
2023/07/16 08:03:11;;;;;;;7.32;4.80;;;22.00;53.90;;;;;;4873004;29;20048;-51
2023/07/16 08:05:40;;;;;;;6.30;3.70;;;22.10;53.80;;;;;;4877610;29;20522;-49
2023/07/16 08:08:07;;;;;;;6.10;3.90;;;22.10;53.70;;;;;;4880626;29;20045;-53
2023/07/16 08:10:34;;;;;;;7.10;4.35;;;22.20;53.20;;;;;;4868919;29;20128;-52
2023/07/16 08:13:04;;;;;;;7.63;3.70;;;22.30;53.00;;;;;;4875334;29;20052;-51
2023/07/16 08:15:37;;;;;;;5.95;3.90;;;22.30;52.70;;;;;;4861408;29;20045;-52
2023/07/16 08:18:08;;;;;;;5.57;3.50;;;22.40;53.10;;;;;;4876488;29;20093;-51
2023/07/16 08:20:36;;;;;;;6.55;3.60;;;22.40;53.10;;;;;;4869387;29;20519;-53
2023/07/16 08:23:06;;;;;;;6.70;4.35;;;22.40;53.20;;;;;;4872739;29;20049;-51
2023/07/16 08:25:38;;;;;;;5.97;3.75;;;22.40;52.60;;;;;;4864095;29;20069;-52
2023/07/16 08:28:07;;;;;;;8.70;4.10;;;22.50;52.30;;;;;;4875676;29;20037;-50
2023/07/16 08:30:34;;;;;;;5.00;3.95;;;22.60;52.60;;;;;;4875858;29;20045;-51
2023/07/16 08:33:01;;;;;;;6.78;3.97;;;22.60;52.10;;;;;;4871349;29;20041;-49
2023/07/16 08:35:28;;;;;;;7.93;5.13;;;22.70;51.80;;;;;;4876151;29;20041;-49
2023/07/16 08:37:54;;;;;;;4.90;4.00;;;22.80;51.70;;;;;;4875118;29;20719;-54
2023/07/16 08:40:21;;;;;;;6.47;3.88;;;22.90;51.70;;;;;;4867725;29;20072;-53
2023/07/16 08:42:49;;;;;;;6.20;3.40;;;22.90;51.60;;;;;;4872391;29;20131;-48
2023/07/16 08:45:16;;;;;;;6.72;3.65;;;23.00;51.30;;;;;;4878914;29;20411;-52
2023/07/16 08:47:43;;;;;;;5.90;3.45;;;23.00;51.40;;;;;;4875621;29;20124;-52
2023/07/16 08:50:12;;;;;;;6.95;3.35;;;23.10;50.80;;;;;;4865425;29;20041;-49
2023/07/16 08:52:40;;;;;;;6.07;3.70;;;23.10;51.00;;;;;;4872578;29;20057;-49
2023/07/16 08:55:07;;;;;;;5.88;3.20;;;23.20;51.10;;;;;;4876422;29;20498;-52
2023/07/16 08:57:34;;;;;;;4.88;3.22;;;23.20;51.40;;;;;;4872290;29;20057;-53
2023/07/16 09:00:02;;;;;;;6.35;3.65;;;23.30;51.10;;;;;;4874991;29;20187;-67
2023/07/16 09:02:29;;;;;;;6.55;4.18;;;23.40;50.70;;;;;;4873261;29;20061;-51
2023/07/16 09:04:56;;;;;;;7.72;4.05;;;23.50;50.70;;;;;;4876788;29;20109;-50
2023/07/16 09:07:22;;;;;;;4.55;3.53;;;23.50;50.60;;;;;;4872165;29;20060;-55
2023/07/16 09:09:59;;;;;;;6.00;3.65;;;23.70;50.90;;;;;;4875116;29;20049;-53
2023/07/16 09:12:27;;;;;;;5.20;3.25;;;23.80;50.40;;;;;;4871656;29;20049;-55
2023/07/16 09:14:55;;;;;;;4.95;4.30;;;23.90;49.80;;;;;;4875195;29;20057;-54
2023/07/16 09:17:23;;;;;;;4.72;3.28;;;24.00;49.50;;;;;;4875233;29;20049;-54
2023/07/16 09:19:51;;;;;;;5.82;3.80;;;24.10;49.50;;;;;;4874346;29;20045;-53
2023/07/16 09:22:19;;;;;;;7.32;3.50;;;24.10;49.30;;;;;;4869049;29;20041;-54
2023/07/16 09:24:47;;;;;;;6.07;2.97;;;24.20;48.70;;;;;;4869121;29;20591;-52
2023/07/16 09:27:14;;;;;;;6.32;3.28;;;24.20;48.70;;;;;;4867850;29;20590;-54
2023/07/16 09:29:41;;;;;;;5.22;3.80;;;24.30;48.10;;;;;;4869468;29;20110;-53
2023/07/16 09:32:08;;;;;;;4.97;2.83;;;24.30;48.70;;;;;;4857465;29;20124;-54
2023/07/16 09:38:58;;;;;;;4.82;3.78;;;24.30;49.50;;;;;;4868854;29;20528;-53
2023/07/16 09:44:27;;;;;;;3.92;3.10;;;24.50;47.70;;;;;;5053701;23;20060;-50
2023/07/16 09:46:54;;;;;;;5.05;3.45;;;24.60;48.40;;;;;;4892288;29;20072;-53
2023/07/16 09:49:21;;;;;;;4.45;3.28;;;24.60;47.80;;;;;;4894773;29;20076;-51
2023/07/16 09:51:56;;;;;;;6.25;3.55;;;24.60;47.90;;;;;;4888270;29;20094;-53
2023/07/16 09:54:25;;;;;;;7.90;3.67;;;24.70;47.60;;;;;;4891247;29;20100;-50
2023/07/16 09:56:58;;;;;;;6.97;3.65;;;24.70;47.70;;;;;;4881830;29;20052;-55
2023/07/16 09:59:28;;;;;;;4.10;3.67;;;24.80;47.30;;;;;;4891547;29;20052;-53
2023/07/16 10:01:57;;;;;;;4.40;3.08;;;24.80;47.60;;;;;;4890171;29;20044;-52
2023/07/16 10:04:24;;;;;;;8.27;4.13;;;24.80;46.80;;;;;;4867942;29;20096;-52
2023/07/16 10:06:59;;;;;;;4.72;3.38;;;24.90;46.90;;;;;;4890163;29;20096;-52
2023/07/16 10:09:42;;;;;;;5.93;3.50;;;25.00;46.90;;;;;;4886118;29;20123;-51
2023/07/16 10:12:19;;;;;;;5.32;3.67;;;25.00;46.90;;;;;;4887923;29;20427;-53
2023/07/16 10:15:05;;;;;;;8.27;4.35;;;25.10;46.80;;;;;;4894134;29;20052;-53
2023/07/16 10:17:33;;;;;;;5.38;2.90;;;25.20;46.70;;;;;;4895403;29;20083;-52
2023/07/16 10:20:07;;;;;;;4.38;3.30;;;25.30;46.80;;;;;;4896857;29;20052;-49
2023/07/16 10:22:42;;;;;;;6.55;2.60;;;25.50;46.30;;;;;;4872129;29;20045;-49
2023/07/16 10:25:23;;;;;;;3.75;2.47;;;25.60;46.00;;;;;;4895824;29;20083;-51
2023/07/16 10:27:52;;;;;;;4.47;3.25;;;25.60;45.10;;;;;;4892420;29;20509;-51
2023/07/16 10:30:24;;;;;;;3.50;2.55;;;25.70;45.20;;;;;;4894600;29;20120;-53
2023/07/16 10:32:53;;;;;;;6.95;4.32;;;25.70;44.60;;;;;;4894226;29;20052;-51
2023/07/16 10:35:20;;;;;;;3.75;2.88;;;25.70;44.60;;;;;;4896647;29;20045;-53
2023/07/16 10:37:46;;;;;;;4.00;2.75;;;25.70;44.80;;;;;;4894608;29;20048;-53
2023/07/16 10:40:14;;;;;;;4.50;3.13;;;25.80;44.70;;;;;;4894574;29;20120;-53
2023/07/16 10:42:43;;;;;;;4.13;2.95;;;25.80;44.60;;;;;;4895014;29;20740;-54
2023/07/16 10:45:10;;;;;;;5.90;3.30;;;25.80;44.50;;;;;;4896486;29;20119;-54
2023/07/16 10:47:39;;;;;;;3.42;2.40;;;25.90;44.10;;;;;;4894418;29;20393;-51
2023/07/16 10:50:09;;;;;;;3.33;2.37;;;25.90;43.80;;;;;;4893585;29;20044;-53
2023/07/16 10:52:40;;;;;;;3.13;2.53;;;25.90;44.00;;;;;;4896397;29;20349;-54
2023/07/16 10:55:07;;;;;;;4.30;3.10;;;26.00;44.30;;;;;;4896352;29;20443;-53
2023/07/16 10:57:35;;;;;;;3.45;2.80;;;26.00;44.20;;;;;;4874761;29;20708;-54
2023/07/16 11:00:03;;;;;;;4.53;2.13;;;26.00;44.10;;;;;;4895324;29;21027;-50
2023/07/16 11:02:30;;;;;;;3.95;2.63;;;26.00;44.20;;;;;;4891575;29;20483;-55
2023/07/16 11:05:02;;;;;;;4.00;2.30;;;26.10;44.00;;;;;;4891766;29;20040;-52
2023/07/16 11:07:31;;;;;;;3.55;2.83;;;26.10;43.70;;;;;;4894874;29;20694;-51
2023/07/16 11:09:58;;;;;;;3.25;2.42;;;26.10;43.90;;;;;;4894480;29;20115;-53
2023/07/16 11:12:24;;;;;;;2.80;2.15;;;26.20;43.60;;;;;;4892505;29;20712;-55
2023/07/16 11:14:53;;;;;;;3.53;2.47;;;26.20;43.80;;;;;;4894517;29;20481;-54
2023/07/16 11:17:24;;;;;;;3.30;2.10;;;26.20;43.30;;;;;;4894229;29;20068;-53
2023/07/16 11:19:54;;;;;;;3.47;2.78;;;26.20;43.50;;;;;;4895792;29;20051;-54
2023/07/16 11:22:27;;;;;;;3.00;2.15;;;26.20;43.20;;;;;;4893610;29;20080;-55
2023/07/16 11:24:54;;;;;;;3.60;2.42;;;26.20;43.20;;;;;;4895983;29;20045;-54
2023/07/16 11:27:26;;;;;;;3.53;2.40;;;26.20;43.10;;;;;;4894950;29;20045;-55
2023/07/16 11:29:57;;;;;;;3.38;2.70;;;26.10;43.60;;;;;;4897838;29;20051;-54
2023/07/16 11:32:37;;;;;;;3.97;2.38;;;26.10;43.60;;;;;;4894967;29;20295;-55
2023/07/16 11:35:06;;;;;;;4.80;2.38;;;26.00;43.00;;;;;;4896568;29;20147;-51
2023/07/16 11:37:35;;;;;;;6.80;2.70;;;25.90;43.20;;;;;;4892566;29;20075;-54
2023/07/16 11:40:07;;;;;;;3.95;2.40;;;25.90;43.10;;;;;;4894258;29;20119;-51
2023/07/16 11:42:41;;;;;;;3.40;2.80;;;25.80;43.00;;;;;;4877818;29;20041;-50
2023/07/16 11:45:17;;;;;;;2.70;2.22;;;25.80;43.50;;;;;;4876069;29;20434;-50
2023/07/16 11:47:46;;;;;;;3.30;2.70;;;25.80;43.40;;;;;;4892502;29;20086;-51
2023/07/16 11:50:13;;;;;;;3.55;2.25;;;25.80;43.40;;;;;;4891089;29;20041;-50
2023/07/16 11:52:40;;;;;;;3.67;2.45;;;25.80;43.80;;;;;;4876701;29;20151;-51
2023/07/16 11:55:07;;;;;;;3.17;2.38;;;25.80;43.90;;;;;;4892132;29;20052;-54
2023/07/16 11:57:37;;;;;;;3.08;2.70;;;25.80;43.70;;;;;;4890842;29;20138;-50
2023/07/16 12:00:05;;;;;;;4.55;2.45;;;25.90;43.70;;;;;;4893545;29;20052;-52
2023/07/16 12:02:34;;;;;;;5.07;2.00;;;25.90;43.90;;;;;;4893723;29;20049;-53
2023/07/16 12:05:01;;;;;;;2.85;1.98;;;26.10;43.50;;;;;;4891884;29;20049;-52
2023/07/16 12:07:36;;;;;;;2.65;2.35;;;26.20;43.40;;;;;;4891989;29;20124;-55
2023/07/16 12:10:05;;;;;;;5.47;2.20;;;26.20;43.00;;;;;;4890867;29;20056;-53
2023/07/16 12:12:38;;;;;;;3.67;2.13;;;26.30;43.10;;;;;;4891842;29;20057;-55
2023/07/16 12:15:09;;;;;;;2.80;1.95;;;26.30;42.70;;;;;;4893142;29;20055;-53
2023/07/16 12:17:36;;;;;;;2.75;1.90;;;26.40;42.80;;;;;;4893346;29;20104;-54
2023/07/16 12:20:06;;;;;;;3.78;2.00;;;26.40;42.50;;;;;;4891139;29;20057;-51
2023/07/16 12:22:36;;;;;;;2.67;1.90;;;26.60;42.20;;;;;;4890822;29;20040;-55
2023/07/16 12:25:05;;;;;;;2.13;1.77;;;26.60;41.80;;;;;;4893502;29;20048;-52
2023/07/16 12:27:31;;;;;;;3.75;2.30;;;26.70;42.10;;;;;;4894605;29;20049;-53
2023/07/16 12:29:58;;;;;;;3.75;2.15;;;26.80;41.60;;;;;;4895159;29;20080;-54
2023/07/16 12:32:25;;;;;;;4.32;2.33;;;26.80;41.40;;;;;;4888397;29;20502;-51
2023/07/16 12:34:55;;;;;;;5.07;1.88;;;26.90;41.20;;;;;;4872268;29;20690;-55
2023/07/16 12:37:21;;;;;;;4.53;2.40;;;26.90;41.20;;;;;;4891261;29;20495;-53
2023/07/16 12:39:48;;;;;;;2.70;2.38;;;27.00;41.50;;;;;;4890968;29;20041;-55
2023/07/16 12:42:15;;;;;;;2.72;1.98;;;27.10;41.80;;;;;;4892589;29;20120;-54
2023/07/16 12:44:41;;;;;;;5.15;1.90;;;27.20;41.70;;;;;;4892773;29;20044;-54
2023/07/16 12:47:08;;;;;;;2.42;1.98;;;27.30;41.90;;;;;;4876393;29;20116;-53
2023/07/16 12:49:36;;;;;;;3.92;2.10;;;27.50;41.30;;;;;;4893870;29;20048;-55
2023/07/16 12:52:03;;;;;;;2.75;1.73;;;27.70;40.50;;;;;;4892458;29;20439;-54
2023/07/16 12:54:29;;;;;;;3.83;2.22;;;27.80;39.90;;;;;;4893548;29;20121;-54
2023/07/16 12:57:00;;;;;;;3.42;1.75;;;27.90;39.50;;;;;;4893706;29;20418;-54
2023/07/16 12:59:26;;;;;;;5.35;2.05;;;28.00;39.20;;;;;;4891577;29;20585;-55
2023/07/16 13:01:53;;;;;;;3.20;2.17;;;28.00;39.20;;;;;;4892670;29;20052;-54
2023/07/16 13:04:20;;;;;;;3.38;1.92;;;28.10;39.60;;;;;;4893890;29;20093;-54